Time;durP1;ratioP1;P1;durP2;ratioP2;P2;SDS_P1;SDS_P2;PMS_P1;PMS_P2;Temp;Humidity;BMP_temperature;BMP_pressure;BME280_temperature;BME280_humidity;BME280_pressure;Samples;Min_cycle;Max_cycle;Signal;HPM_P1;HPM_P2
2022/03/26 00:01:30;;;;;;;47.85;24.70;;;;;;;2.89;53.70;101351.77;1784010;80;21131;-73
2022/03/26 00:03:57;;;;;;;42.23;23.65;;;;;;;2.90;53.56;101347.87;1783938;80;20916;-73
2022/03/26 00:06:24;;;;;;;45.55;23.02;;;;;;;2.89;53.55;101351.35;1784028;80;21461;-74
2022/03/26 00:08:52;;;;;;;48.15;24.75;;;;;;;2.90;53.39;101351.75;1783990;80;21434;-72
2022/03/26 00:11:20;;;;;;;48.48;27.05;;;;;;;2.90;53.51;101342.69;1784172;79;20907;-73
2022/03/26 00:13:47;;;;;;;47.33;23.38;;;;;;;2.90;53.29;101348.31;1784097;80;21252;-73
2022/03/26 00:16:15;;;;;;;45.05;23.15;;;;;;;2.87;53.27;101342.75;1783934;80;21479;-73
2022/03/26 00:18:42;;;;;;;46.63;22.32;;;;;;;2.85;53.19;101341.07;1784313;80;20840;-72
2022/03/26 00:21:11;;;;;;;47.75;23.05;;;;;;;2.83;53.14;101337.64;1783926;80;20884;-73
2022/03/26 00:23:38;;;;;;;45.35;23.45;;;;;;;2.81;53.31;101338.11;1784047;80;20919;-73
2022/03/26 00:26:05;;;;;;;44.95;23.75;;;;;;;2.79;53.49;101337.28;1784218;80;21221;-73
2022/03/26 00:28:31;;;;;;;39.35;21.65;;;;;;;2.76;53.68;101330.42;1784120;80;20883;-73
2022/03/26 00:30:58;;;;;;;43.70;23.00;;;;;;;2.74;53.73;101341.23;1742300;80;20896;-72
2022/03/26 00:33:27;;;;;;;41.80;22.05;;;;;;;2.71;53.77;101341.27;1783956;80;20939;-73
2022/03/26 00:35:54;;;;;;;42.50;23.75;;;;;;;2.68;53.83;101345.21;1784101;80;21014;-72
2022/03/26 00:38:21;;;;;;;40.58;22.48;;;;;;;2.63;53.97;101344.44;1784462;80;21236;-73
2022/03/26 00:40:49;;;;;;;43.63;21.12;;;;;;;2.58;54.40;101347.52;1784036;80;20852;-73
2022/03/26 00:43:16;;;;;;;38.30;20.40;;;;;;;2.53;54.75;101342.86;1784388;79;20998;-75
2022/03/26 00:45:43;;;;;;;41.18;22.70;;;;;;;2.47;54.85;101345.11;1783950;80;21473;-74
2022/03/26 00:48:09;;;;;;;35.20;19.52;;;;;;;2.43;54.60;101343.00;1784047;80;20880;-74
2022/03/26 00:50:37;;;;;;;35.15;19.60;;;;;;;2.40;54.73;101342.17;1784001;79;21204;-73
2022/03/26 00:53:04;;;;;;;35.65;18.77;;;;;;;2.36;54.75;101348.30;1784123;80;20825;-73
2022/03/26 00:55:32;;;;;;;38.53;20.05;;;;;;;2.32;54.92;101342.75;1784089;80;21334;-74
2022/03/26 00:57:59;;;;;;;38.95;19.37;;;;;;;2.28;55.15;101339.33;1757809;80;20845;-73
2022/03/26 01:00:27;;;;;;;36.58;20.45;;;;;;;2.27;55.12;101342.81;1784147;79;21390;-73
2022/03/26 01:02:54;;;;;;;39.00;20.25;;;;;;;2.25;55.01;101342.82;1784288;80;21050;-73
2022/03/26 01:05:21;;;;;;;38.25;20.08;;;;;;;2.24;55.12;101343.68;1783874;80;20900;-72
2022/03/26 01:07:48;;;;;;;37.13;18.37;;;;;;;2.21;55.06;101341.15;1783985;80;21394;-73
2022/03/26 01:10:17;;;;;;;36.13;19.12;;;;;;;2.17;55.18;101337.33;1797695;79;21014;-73
2022/03/26 01:12:45;;;;;;;42.48;22.65;;;;;;;2.13;55.20;101331.78;1796994;80;20927;-73
2022/03/26 01:15:12;;;;;;;41.80;22.05;;;;;;;2.12;55.23;101334.81;1796879;80;21548;-73
2022/03/26 01:17:39;;;;;;;47.13;21.77;;;;;;;2.07;55.31;101333.58;1816148;79;20876;-72
2022/03/26 01:21:03;;;;;;;39.15;21.48;;;;;;;2.12;55.29;101335.25;1816569;79;22638;-73
2022/03/26 01:23:31;;;;;;;38.98;20.62;;;;;;;2.12;55.38;101337.84;1789614;80;21475;-73
2022/03/26 01:25:58;;;;;;;40.55;19.62;;;;;;;2.13;55.22;101339.54;1789575;80;21304;-73
2022/03/26 01:28:26;;;;;;;44.40;20.48;;;;;;;2.14;55.11;101334.36;1789472;80;20865;-73
2022/03/26 01:30:54;;;;;;;37.20;20.50;;;;;;;2.18;55.36;101336.44;1789381;80;20884;-73
2022/03/26 01:33:21;;;;;;;34.78;18.82;;;;;;;2.21;55.37;101339.01;1789555;80;20927;-73
2022/03/26 01:35:48;;;;;;;46.98;20.97;;;;;;;2.22;55.41;101336.41;1789475;80;20888;-74
2022/03/26 01:38:14;;;;;;;37.48;20.80;;;;;;;2.24;55.14;101332.04;1789871;80;21199;-73
2022/03/26 01:40:42;;;;;;;39.45;21.10;;;;;;;2.30;54.82;101333.70;1789488;80;21476;-73
2022/03/26 01:43:09;;;;;;;41.73;21.00;;;;;;;2.35;55.11;101324.57;1789436;80;20983;-73
2022/03/26 01:45:36;;;;;;;43.83;19.98;;;;;;;2.40;54.81;101335.28;1789374;80;20908;-73
2022/03/26 01:48:03;;;;;;;39.00;19.70;;;;;;;2.45;54.69;101328.30;1789733;79;20941;-72
2022/03/26 01:50:30;;;;;;;37.78;20.50;;;;;;;2.51;54.78;101329.92;1789518;80;21895;-72
2022/03/26 01:52:58;;;;;;;42.05;19.92;;;;;;;2.55;54.59;101328.16;1789363;80;20994;-73
2022/03/26 01:55:26;;;;;;;33.50;21.10;;;;;;;2.59;54.40;101324.64;1789514;80;20939;-72
2022/03/26 01:57:54;;;;;;;43.02;20.45;;;;;;;2.64;54.28;101327.56;1789493;80;20959;-72
2022/03/26 02:00:20;;;;;;;39.25;20.97;;;;;;;2.70;54.24;101322.73;1789651;80;21390;-73
2022/03/26 02:02:47;;;;;;;40.50;20.97;;;;;;;2.75;54.10;101329.98;1790365;80;21375;-73
2022/03/26 02:05:17;;;;;;;37.00;21.02;;;;;;;2.79;54.05;101335.53;1789514;80;20860;-73
2022/03/26 02:07:46;;;;;;;36.30;19.98;;;;;;;2.82;54.07;101327.70;1789902;80;20892;-73
2022/03/26 02:10:15;;;;;;;46.02;21.62;;;;;;;2.86;54.15;101337.59;1789490;80;21456;-72
2022/03/26 02:12:42;;;;;;;34.83;19.57;;;;;;;2.89;54.15;101324.57;1789589;80;21041;-74
2022/03/26 02:15:09;;;;;;;48.78;24.63;;;;;;;2.92;54.05;101329.72;1789446;80;21234;-73
2022/03/26 02:17:38;;;;;;;45.83;22.25;;;;;;;2.94;54.03;101331.84;1789488;80;20884;-72
2022/03/26 02:20:10;;;;;;;37.88;21.37;;;;;;;2.95;54.01;101333.55;1782701;80;20860;-73
2022/03/26 02:22:38;;;;;;;38.80;20.40;;;;;;;2.94;54.06;101338.33;1776010;80;20924;-74
2022/03/26 02:25:07;;;;;;;41.83;21.50;;;;;;;2.93;53.91;101337.05;1776191;80;20920;-71
2022/03/26 02:27:34;;;;;;;36.93;22.13;;;;;;;2.90;53.94;101333.62;1775928;80;21077;-72
2022/03/26 02:30:02;;;;;;;44.93;25.80;;;;;;;2.86;54.14;101323.34;1775759;80;20932;-71
2022/03/26 02:32:29;;;;;;;36.63;20.35;;;;;;;2.83;54.29;101332.02;1775370;80;21019;-73
2022/03/26 02:34:56;;;;;;;43.50;25.15;;;;;;;2.79;54.72;101331.65;1775280;80;21437;-73
2022/03/26 02:37:23;;;;;;;53.83;26.62;;;;;;;2.76;55.00;101329.13;1775399;80;20885;-72
2022/03/26 02:39:51;;;;;;;40.50;22.22;;;;;;;2.75;55.31;101323.52;1775301;80;21683;-72
2022/03/26 02:42:18;;;;;;;47.15;22.07;;;;;;;2.74;55.61;101325.70;1775867;80;20948;-73
2022/03/26 02:44:45;;;;;;;46.95;25.62;;;;;;;2.74;55.73;101325.70;1775694;80;20880;-73
2022/03/26 02:47:12;;;;;;;50.40;26.85;;;;;;;2.75;55.83;101325.25;1775371;80;20928;-73
2022/03/26 02:49:41;;;;;;;49.00;24.20;;;;;;;2.76;55.85;101324.36;1775334;80;20941;-73
2022/03/26 02:52:08;;;;;;;45.80;25.17;;;;;;;2.79;56.05;101326.92;1775249;80;21390;-73
2022/03/26 02:54:36;;;;;;;47.65;26.73;;;;;;;2.79;55.99;101325.63;1775753;80;20884;-72
2022/03/26 02:57:03;;;;;;;65.00;38.10;;;;;;;2.82;56.03;101326.85;1775359;80;20959;-73
2022/03/26 02:59:30;;;;;;;56.20;31.90;;;;;;;2.85;56.13;101324.23;1775233;80;20960;-73
2022/03/26 03:01:57;;;;;;;56.98;31.40;;;;;;;2.86;56.13;101317.71;1775460;80;21351;-73
2022/03/26 03:04:24;;;;;;;53.85;28.85;;;;;;;2.88;56.17;101326.31;1775377;80;21581;-73
2022/03/26 03:06:51;;;;;;;53.15;27.25;;;;;;;2.90;56.34;101321.12;1775336;80;20888;-73
2022/03/26 03:09:19;;;;;;;58.02;28.02;;;;;;;2.91;56.48;101322.81;1775407;80;21426;-72
2022/03/26 03:11:46;;;;;;;50.43;27.42;;;;;;;2.92;56.57;101324.98;1775238;80;20869;-73
2022/03/26 03:14:15;;;;;;;47.45;26.50;;;;;;;2.92;56.72;101325.83;1775437;80;20920;-73
2022/03/26 03:16:42;;;;;;;42.40;26.62;;;;;;;2.93;56.79;101326.68;1775356;80;21465;-73
2022/03/26 03:19:11;;;;;;;50.73;28.67;;;;;;;2.94;56.90;101321.93;1775138;80;21011;-72
2022/03/26 03:21:37;;;;;;;53.58;30.10;;;;;;;2.95;57.23;101323.17;1775400;80;20886;-72
2022/03/26 03:24:05;;;;;;;47.83;27.50;;;;;;;2.93;57.29;101318.46;1775710;80;21441;-74
2022/03/26 03:26:32;;;;;;;50.15;29.75;;;;;;;2.92;57.60;101319.80;1775627;80;21077;-73
2022/03/26 03:28:59;;;;;;;54.18;29.85;;;;;;;2.93;57.86;101324.09;1775348;80;21259;-74
2022/03/26 03:31:27;;;;;;;52.23;30.72;;;;;;;2.94;57.91;101319.34;1775468;80;20912;-73
2022/03/26 03:33:54;;;;;;;57.85;30.05;;;;;;;2.94;58.25;101320.64;1775357;80;20893;-73
2022/03/26 03:36:21;;;;;;;55.23;29.90;;;;;;;2.96;58.58;101324.91;1775444;80;20964;-72
2022/03/26 03:38:48;;;;;;;53.68;31.25;;;;;;;2.96;58.78;101317.13;1775234;80;20979;-73
2022/03/26 03:41:15;;;;;;;55.08;29.82;;;;;;;2.98;58.89;101318.37;1775201;80;21247;-75
2022/03/26 03:43:42;;;;;;;52.17;30.85;;;;;;;2.99;58.98;101311.88;1775242;80;20967;-74
2022/03/26 03:46:09;;;;;;;61.85;33.80;;;;;;;3.01;58.97;101316.60;1775485;80;20854;-72
2022/03/26 03:48:37;;;;;;;55.80;33.78;;;;;;;3.04;59.30;101318.28;1775257;80;20877;-73
2022/03/26 03:51:03;;;;;;;61.40;34.35;;;;;;;3.06;59.46;101318.66;1775383;80;21362;-73
2022/03/26 03:53:30;;;;;;;56.20;35.73;;;;;;;3.10;59.60;101316.44;1775247;80;21231;-72
2022/03/26 03:55:57;;;;;;;61.53;38.90;;;;;;;3.12;59.72;101311.23;1775172;80;20920;-74
2022/03/26 03:58:24;;;;;;;60.00;35.88;;;;;;;3.13;59.81;101310.79;1775357;80;20896;-74
2022/03/26 04:00:50;;;;;;;67.85;37.10;;;;;;;3.14;59.71;101313.36;1775529;80;20975;-73
2022/03/26 04:03:17;;;;;;;65.85;39.10;;;;;;;3.18;59.70;101309.84;1775314;80;20837;-74
2022/03/26 04:05:47;;;;;;;65.32;36.40;;;;;;;3.22;59.63;101313.20;1775477;80;21898;-71
2022/03/26 04:08:14;;;;;;;53.45;31.27;;;;;;;3.25;59.93;101306.69;1775609;80;21370;-73
2022/03/26 04:10:42;;;;;;;59.20;35.48;;;;;;;3.29;59.96;101314.80;1775322;80;21414;-73
2022/03/26 04:13:10;;;;;;;56.30;34.85;;;;;;;3.36;59.93;101311.64;1775161;80;21026;-74
2022/03/26 04:15:38;;;;;;;59.90;33.88;;;;;;;3.44;60.01;101309.77;1775323;80;20923;-74
2022/03/26 04:18:06;;;;;;;53.90;32.80;;;;;;;3.53;59.94;101318.25;1775357;80;21245;-74
2022/03/26 04:20:35;;;;;;;58.33;34.23;;;;;;;3.64;60.02;101318.45;1775111;80;21370;-73
2022/03/26 04:23:03;;;;;;;63.38;34.85;;;;;;;3.80;59.99;101317.70;1775640;80;20975;-74
2022/03/26 04:25:31;;;;;;;54.60;33.38;;;;;;;4.00;59.96;101316.83;1775401;80;20936;-73
2022/03/26 04:27:58;;;;;;;50.33;31.10;;;;;;;4.22;59.55;101311.17;1775408;80;21304;-73
2022/03/26 04:30:25;;;;;;;61.50;32.23;;;;;;;4.44;59.20;101308.95;1775193;80;21892;-74
2022/03/26 04:32:52;;;;;;;63.92;34.55;;;;;;;4.66;58.65;101319.23;1775139;80;20979;-73
2022/03/26 04:35:20;;;;;;;55.55;31.45;;;;;;;4.85;58.07;101312.30;1775203;80;20889;-73
2022/03/26 04:37:47;;;;;;;59.63;33.55;;;;;;;5.01;57.66;101317.50;1775284;80;20936;-73
2022/03/26 04:40:15;;;;;;;48.90;30.10;;;;;;;5.18;57.30;101323.58;1775511;80;20889;-73
2022/03/26 04:42:42;;;;;;;55.25;32.38;;;;;;;5.34;57.01;101310.56;1775309;80;21292;-72
2022/03/26 04:45:09;;;;;;;52.38;30.65;;;;;;;5.52;56.61;101313.11;1775312;80;21536;-73
2022/03/26 04:47:38;;;;;;;57.45;31.95;;;;;;;5.78;56.44;101308.89;1775480;80;21408;-73
2022/03/26 04:50:06;;;;;;;57.83;32.78;;;;;;;6.13;55.97;101307.04;1775577;80;20944;-75
2022/03/26 04:52:33;;;;;;;51.25;32.45;;;;;;;6.58;55.15;101308.67;1775200;80;21422;-74
2022/03/26 04:55:01;;;;;;;54.98;31.20;;;;;;;7.04;54.47;101299.29;1775165;80;21161;-74
2022/03/26 04:57:28;;;;;;;49.45;29.63;;;;;;;7.48;54.10;101300.79;1775113;80;20885;-74
2022/03/26 04:59:55;;;;;;;53.58;31.90;;;;;;;7.95;52.97;101301.24;1775174;80;20881;-74
2022/03/26 05:02:22;;;;;;;63.98;32.25;;;;;;;8.43;52.05;101302.89;1775278;80;20892;-74
2022/03/26 05:04:49;;;;;;;66.72;35.40;;;;;;;8.96;50.45;101314.69;1775584;80;21414;-75
2022/03/26 05:10:02;;;;;;;57.60;31.93;;;;;;;10.06;47.80;101302.37;1775257;80;20944;-73
2022/03/26 05:12:29;;;;;;;51.28;32.15;;;;;;;10.70;46.74;101302.85;1775239;80;20936;-74
2022/03/26 05:14:57;;;;;;;46.92;30.70;;;;;;;11.22;44.95;101305.45;1775254;80;21394;-75
2022/03/26 05:17:24;;;;;;;58.75;28.90;;;;;;;11.72;43.66;101307.20;1775582;80;20853;-75
2022/03/26 05:19:52;;;;;;;45.63;29.75;;;;;;;12.20;43.19;101301.98;1775188;80;20936;-73
2022/03/26 05:22:19;;;;;;;48.15;29.37;;;;;;;12.67;41.79;101302.84;1783374;80;21015;-73
2022/03/26 05:24:47;;;;;;;49.03;27.95;;;;;;;13.05;40.61;101308.53;1783479;80;21350;-75
2022/03/26 05:27:14;;;;;;;42.75;27.13;;;;;;;13.44;39.61;101307.92;1783860;80;21019;-74
2022/03/26 05:29:42;;;;;;;37.88;24.52;;;;;;;13.84;38.84;101302.82;1784112;80;20896;-75
2022/03/26 05:32:09;;;;;;;38.20;24.30;;;;;;;14.23;38.23;101307.84;1783749;80;21248;-75
2022/03/26 05:34:36;;;;;;;45.83;23.73;;;;;;;14.61;38.00;101311.61;1783813;80;20880;-74
2022/03/26 05:37:04;;;;;;;34.08;22.10;;;;;;;14.92;37.11;101308.61;1783512;80;20888;-74
2022/03/26 05:39:32;;;;;;;32.63;18.30;;;;;;;15.26;36.44;101310.75;1783316;80;20987;-75
2022/03/26 05:41:58;;;;;;;23.80;18.40;;;;;;;15.59;35.66;101314.66;1783390;80;20912;-75
2022/03/26 05:44:25;;;;;;;28.32;18.73;;;;;;;15.83;34.77;101309.45;1783779;80;21303;-74
2022/03/26 05:46:51;;;;;;;29.75;17.85;;;;;;;16.05;34.48;101307.44;1783443;80;21417;-74
2022/03/26 05:49:19;;;;;;;25.80;16.57;;;;;;;16.39;33.71;101308.97;1783516;80;20841;-74
2022/03/26 05:51:47;;;;;;;24.23;16.73;;;;;;;16.67;33.37;101308.59;1783399;80;20900;-75
2022/03/26 05:54:14;;;;;;;25.23;17.23;;;;;;;16.93;32.99;101310.64;1783539;80;21034;-74
2022/03/26 05:56:40;;;;;;;32.63;17.45;;;;;;;17.30;32.37;101313.62;1783562;80;21231;-74
2022/03/26 05:59:12;;;;;;;20.75;15.72;;;;;;;17.62;31.23;101311.09;1783620;80;20829;-75
2022/03/26 06:01:36;;;;;;;28.38;17.23;;;;;;;17.82;30.43;101301.59;1782218;80;20943;-75
2022/03/26 06:04:04;;;;;;;29.00;17.42;;;;;;;17.92;30.12;101299.03;1783475;80;21472;-74
2022/03/26 06:06:30;;;;;;;26.60;18.07;;;;;;;18.02;30.21;101306.62;1783745;80;20927;-75
2022/03/26 06:08:59;;;;;;;25.90;17.75;;;;;;;18.17;29.33;101310.70;1783624;80;20924;-73
2022/03/26 06:11:26;;;;;;;26.05;17.15;;;;;;;18.22;29.03;101309.83;1783550;80;20872;-76
2022/03/26 06:13:53;;;;;;;24.85;18.15;;;;;;;18.34;29.39;101313.33;1784380;80;20940;-74
2022/03/26 06:16:19;;;;;;;24.35;18.00;;;;;;;18.53;28.62;101298.03;1783632;80;21022;-73
2022/03/26 06:18:46;;;;;;;31.33;17.45;;;;;;;18.70;28.34;101295.30;1783683;80;21334;-74
2022/03/26 06:21:14;;;;;;;20.68;16.25;;;;;;;18.89;28.03;101301.27;1779900;80;21020;-75
2022/03/26 06:23:41;;;;;;;23.57;16.80;;;;;;;19.14;28.22;101292.53;1775240;80;20972;-74
2022/03/26 06:26:07;;;;;;;17.85;15.13;;;;;;;19.36;27.58;101288.87;1775749;80;20892;-74
2022/03/26 06:28:34;;;;;;;25.52;15.80;;;;;;;19.53;27.05;101290.08;1775544;80;21500;-74
2022/03/26 06:31:02;;;;;;;17.65;13.93;;;;;;;19.64;27.08;101287.31;1775462;80;20947;-73
2022/03/26 06:33:29;;;;;;;19.70;15.90;;;;;;;19.81;26.46;101287.17;1775239;80;21868;-73
2022/03/26 06:35:56;;;;;;;21.68;16.42;;;;;;;19.94;26.38;101287.77;1775241;80;21017;-73
2022/03/26 06:38:22;;;;;;;23.98;17.55;;;;;;;20.11;25.61;101286.27;1775312;80;20893;-75
2022/03/26 06:40:49;;;;;;;37.38;21.90;;;;;;;20.14;25.63;101289.14;1775180;80;20944;-74
2022/03/26 06:43:16;;;;;;;45.70;24.85;;;;;;;20.07;25.43;101287.52;1775728;80;20873;-74
2022/03/26 06:45:43;;;;;;;50.78;27.52;;;;;;;20.08;25.54;101285.23;1775302;80;22048;-74
2022/03/26 06:48:10;;;;;;;44.33;29.77;;;;;;;20.22;25.48;101283.48;1775027;80;20991;-74
2022/03/26 06:50:38;;;;;;;48.85;29.75;;;;;;;20.50;25.41;101283.66;1775278;80;20978;-74
2022/03/26 06:53:04;;;;;;;52.08;31.82;;;;;;;20.70;25.44;101284.02;1775350;80;20912;-73
2022/03/26 06:55:32;;;;;;;43.20;28.42;;;;;;;20.82;25.10;101287.86;1775569;80;20937;-75
2022/03/26 06:57:59;;;;;;;54.80;30.35;;;;;;;20.93;24.61;101282.36;1775373;80;21247;-75
2022/03/26 07:00:26;;;;;;;51.55;26.68;;;;;;;21.03;24.38;101284.53;1775530;80;20900;-75
2022/03/26 07:02:53;;;;;;;44.55;22.52;;;;;;;21.17;24.94;101278.39;1775286;80;20967;-75
2022/03/26 07:05:22;;;;;;;45.60;23.18;;;;;;;21.40;24.30;101282.36;1775289;80;20912;-75
2022/03/26 07:07:49;;;;;;;44.33;23.62;;;;;;;21.68;24.48;101275.25;1775387;80;21139;-75
2022/03/26 07:10:18;;;;;;;38.17;19.10;;;;;;;21.98;23.99;101269.23;1775439;80;21359;-76
2022/03/26 07:12:46;;;;;;;28.15;17.62;;;;;;;22.27;22.98;101271.73;1775280;80;20888;-74
2022/03/26 07:15:15;;;;;;;43.63;19.92;;;;;;;22.45;22.66;101260.20;1775267;80;20924;-75
2022/03/26 07:17:43;;;;;;;38.42;16.45;;;;;;;22.53;22.54;101258.44;1775184;80;20983;-75
2022/03/26 07:20:12;;;;;;;38.23;16.20;;;;;;;22.72;22.38;101252.08;1775341;80;20979;-74
2022/03/26 07:22:39;;;;;;;23.52;14.53;;;;;;;22.88;21.86;101247.34;1775216;80;21231;-75
2022/03/26 07:25:09;;;;;;;25.75;13.45;;;;;;;22.92;22.04;101250.52;1775274;80;20896;-77
2022/03/26 07:27:36;;;;;;;24.20;12.18;;;;;;;22.93;21.83;101249.53;1775182;80;21388;-76
2022/03/26 07:30:05;;;;;;;18.57;11.53;;;;;;;22.93;21.74;101250.37;1775210;80;20856;-77
2022/03/26 07:32:33;;;;;;;15.43;10.82;;;;;;;22.88;21.67;101247.34;1775336;80;20979;-76
2022/03/26 07:35:01;;;;;;;15.43;9.60;;;;;;;22.85;21.71;101242.28;1775364;80;21174;-75
2022/03/26 07:37:29;;;;;;;10.98;8.33;;;;;;;22.84;21.47;101233.09;1775679;80;21471;-75
2022/03/26 07:39:57;;;;;;;12.28;8.20;;;;;;;22.78;21.54;101235.89;1775350;80;20924;-74
2022/03/26 07:42:24;;;;;;;14.18;7.47;;;;;;;22.87;21.54;101236.28;1775474;80;21545;-76
2022/03/26 07:44:51;;;;;;;8.93;6.87;;;;;;;22.97;21.34;101228.16;1775280;80;20933;-75
2022/03/26 07:47:19;;;;;;;9.10;7.85;;;;;;;23.03;21.42;101226.20;1775209;80;21138;-75
2022/03/26 07:49:48;;;;;;;11.70;8.83;;;;;;;23.15;21.28;101216.92;1775261;80;20849;-76
2022/03/26 07:52:16;;;;;;;28.73;9.65;;;;;;;23.20;21.06;101204.90;1775359;80;21378;-75
2022/03/26 07:54:43;;;;;;;10.03;8.20;;;;;;;23.31;21.03;101199.26;1775215;80;20983;-76
2022/03/26 07:57:10;;;;;;;14.30;9.18;;;;;;;23.33;21.04;101193.25;1775610;80;21030;-75
2022/03/26 07:59:37;;;;;;;12.95;8.85;;;;;;;23.28;20.99;101187.55;1775353;80;21156;-75
2022/03/26 08:02:05;;;;;;;14.23;9.00;;;;;;;23.33;21.37;101177.19;1775327;80;20845;-76
2022/03/26 08:04:35;;;;;;;16.02;10.10;;;;;;;23.53;20.92;101165.20;1775393;80;21386;-75
2022/03/26 08:07:03;;;;;;;12.28;9.63;;;;;;;23.77;20.88;101161.77;1775422;80;20929;-76
2022/03/26 08:09:30;;;;;;;15.60;10.70;;;;;;;24.08;20.48;101162.95;1775629;80;21394;-75
2022/03/26 08:11:57;;;;;;;12.73;7.87;;;;;;;24.32;19.84;101156.73;1775276;80;21621;-74
2022/03/26 08:14:25;;;;;;;11.05;7.62;;;;;;;24.30;19.22;101148.89;1775427;80;20888;-76
2022/03/26 08:16:52;;;;;;;10.95;7.00;;;;;;;24.14;19.47;101155.07;1775632;80;20947;-74
2022/03/26 08:19:19;;;;;;;10.70;7.65;;;;;;;24.07;19.82;101147.88;1775290;80;21501;-76
2022/03/26 08:21:48;;;;;;;16.37;8.10;;;;;;;24.17;19.41;101135.16;1777932;80;20935;-76
2022/03/26 08:24:15;;;;;;;12.45;9.05;;;;;;;24.14;19.20;101129.61;1783788;80;21911;-75
2022/03/26 08:26:43;;;;;;;10.32;8.05;;;;;;;24.19;19.27;101130.47;1783508;80;20987;-76
2022/03/26 08:29:10;;;;;;;23.42;9.30;;;;;;;24.25;19.29;101126.27;1783721;80;21565;-75
2022/03/26 08:31:37;;;;;;;25.08;9.10;;;;;;;24.37;19.22;101129.77;1783488;80;20939;-76
2022/03/26 08:34:04;;;;;;;11.83;8.58;;;;;;;24.40;18.47;101136.63;1783609;80;20853;-77
2022/03/26 08:36:32;;;;;;;12.88;8.30;;;;;;;24.43;19.04;101134.11;1783734;80;21076;-75
2022/03/26 08:38:59;;;;;;;14.87;9.23;;;;;;;24.49;18.79;101130.28;1783502;80;20924;-75
2022/03/26 08:41:26;;;;;;;12.98;9.73;;;;;;;24.55;18.96;101133.62;1783698;80;20892;-76
2022/03/26 08:43:53;;;;;;;14.90;9.58;;;;;;;24.53;19.08;101126.25;1783519;80;20876;-75
2022/03/26 08:46:23;;;;;;;12.03;10.23;;;;;;;24.51;18.99;101125.58;1783674;80;20952;-75
2022/03/26 08:48:52;;;;;;;18.87;12.40;;;;;;;24.49;19.50;101116.87;1783487;80;21042;-75
2022/03/26 08:51:19;;;;;;;17.50;12.78;;;;;;;24.56;19.76;101111.15;1783445;80;20919;-77
2022/03/26 08:53:48;;;;;;;20.05;12.75;;;;;;;24.76;19.87;101111.59;1783484;80;21454;-76
2022/03/26 08:56:15;;;;;;;17.85;11.53;;;;;;;24.88;19.62;101108.05;1783115;80;20998;-76
2022/03/26 08:58:43;;;;;;;15.88;9.95;;;;;;;24.91;19.54;101097.47;1783440;80;20928;-76
2022/03/26 09:01:11;;;;;;;19.52;10.65;;;;;;;24.76;19.50;101086.10;1783106;80;21126;-76
2022/03/26 09:03:40;;;;;;;18.45;10.93;;;;;;;24.47;19.88;101093.38;1783038;80;20908;-76
2022/03/26 09:06:07;;;;;;;12.85;9.95;;;;;;;24.32;19.70;101101.78;1783400;80;20932;-76
2022/03/26 09:08:35;;;;;;;21.50;11.03;;;;;;;24.38;19.98;101091.73;1782831;80;20928;-75
2022/03/26 09:11:04;;;;;;;17.45;11.50;;;;;;;24.42;19.42;101087.70;1783244;80;20983;-76
2022/03/26 09:13:32;;;;;;;12.58;11.28;;;;;;;24.33;19.59;101086.88;1783194;80;21651;-75
2022/03/26 09:16:01;;;;;;;18.00;11.80;;;;;;;24.31;19.53;101080.02;1782629;80;21556;-76
2022/03/26 09:18:29;;;;;;;15.08;10.93;;;;;;;24.33;19.54;101079.35;1783119;80;20932;-74
2022/03/26 09:20:56;;;;;;;16.55;11.90;;;;;;;24.37;19.87;101068.63;1782938;80;20924;-75
2022/03/26 09:23:24;;;;;;;28.42;14.43;;;;;;;24.45;19.86;101061.88;1783427;80;20877;-76
2022/03/26 09:25:52;;;;;;;24.77;13.28;;;;;;;24.52;19.86;101060.71;1782145;80;21922;-77
2022/03/26 09:28:19;;;;;;;22.35;11.85;;;;;;;24.59;19.75;101059.04;1783012;80;20881;-74
2022/03/26 09:30:47;;;;;;;14.53;11.20;;;;;;;24.59;19.53;101052.34;1783479;80;20935;-75
2022/03/26 09:33:14;;;;;;;12.20;10.55;;;;;;;24.52;19.55;101042.80;1783568;80;21076;-75
2022/03/26 09:35:43;;;;;;;44.80;13.53;;;;;;;24.50;19.84;101038.59;1783724;80;20994;-75
2022/03/26 09:38:12;;;;;;;19.98;10.80;;;;;;;24.53;19.69;101030.23;1783599;80;21186;-75
2022/03/26 09:40:43;;;;;;;12.88;11.48;;;;;;;24.52;19.88;101032.56;1785183;80;20963;-75
2022/03/26 09:43:10;;;;;;;12.00;10.68;;;;;;;24.68;19.99;101028.48;1784865;80;20861;-72
2022/03/26 09:45:38;;;;;;;11.25;10.03;;;;;;;24.82;19.59;101021.03;1783713;80;21393;-75
2022/03/26 09:48:06;;;;;;;14.00;9.88;;;;;;;25.00;19.64;101011.88;1783700;80;21358;-75
2022/03/26 09:50:34;;;;;;;10.90;9.15;;;;;;;25.20;19.84;101017.66;1783594;80;21144;-75
2022/03/26 09:53:01;;;;;;;19.00;10.40;;;;;;;25.43;19.30;101001.53;1783829;80;20931;-77
2022/03/26 09:55:30;;;;;;;11.30;9.18;;;;;;;25.53;19.17;100998.09;1783971;80;20884;-75
2022/03/26 09:57:58;;;;;;;17.40;9.53;;;;;;;25.50;19.03;100994.45;1783689;80;20935;-76
2022/03/26 10:00:27;;;;;;;19.07;11.68;;;;;;;25.57;18.77;100996.73;1783661;80;20931;-74
2022/03/26 10:02:54;;;;;;;11.97;8.73;;;;;;;25.52;18.91;100977.61;1783649;80;21258;-74
2022/03/26 10:05:34;;;;;;;28.85;9.15;;;;;;;25.61;18.97;100985.09;1783732;80;20943;-76
2022/03/26 10:08:23;;;;;;;20.88;10.63;;;;;;;25.74;18.94;100979.93;1783633;80;20979;-74
2022/03/26 10:10:51;;;;;;;19.32;9.43;;;;;;;25.83;18.69;100976.66;1783545;80;21011;-75
2022/03/26 10:13:39;;;;;;;18.00;9.55;;;;;;;25.71;18.70;100978.14;1783704;80;20881;-76
2022/03/26 10:16:14;;;;;;;33.10;10.32;;;;;;;25.53;18.91;100970.41;1783696;80;21939;-75
2022/03/26 10:18:47;;;;;;;23.02;8.80;;;;;;;25.34;18.68;100950.26;1783562;80;20951;-76
2022/03/26 10:21:16;;;;;;;19.55;8.80;;;;;;;25.29;18.58;100939.23;1783469;80;20955;-75
2022/03/26 10:23:50;;;;;;;14.13;7.67;;;;;;;25.31;18.23;100938.55;1770079;80;20850;-74
2022/03/26 10:26:25;;;;;;;74.20;12.30;;;;;;;25.25;18.33;100933.38;1768776;81;20845;-73
2022/03/26 10:28:55;;;;;;;21.42;9.00;;;;;;;25.04;18.11;100930.01;1770173;80;21324;-74
2022/03/26 10:34:20;;;;;;;20.15;10.32;;;;;;;24.65;18.55;100924.22;1768671;81;20940;-75
2022/03/26 10:36:57;;;;;;;15.08;9.58;;;;;;;24.57;18.82;100905.52;1768147;81;20897;-76
2022/03/26 10:39:30;;;;;;;9.53;7.65;;;;;;;24.55;18.80;100905.69;1768366;81;21438;-76
2022/03/26 10:41:59;;;;;;;15.95;8.35;;;;;;;24.60;19.50;100905.16;1768359;81;21858;-75
2022/03/26 10:44:28;;;;;;;15.32;9.43;;;;;;;24.52;18.57;100882.40;1768454;81;20968;-77
2022/03/26 10:47:00;;;;;;;21.52;8.50;;;;;;;24.44;18.92;100875.22;1768374;80;20932;-76
2022/03/26 10:49:36;;;;;;;15.05;8.10;;;;;;;24.41;18.59;100877.75;1768144;80;20909;-76
2022/03/26 10:52:17;;;;;;;10.95;8.43;;;;;;;24.50;18.71;100865.66;1740290;81;21453;-75
2022/03/26 10:54:49;;;;;;;25.10;9.68;;;;;;;24.66;18.65;100857.52;1767321;80;21734;-76
2022/03/26 10:57:18;;;;;;;12.53;8.78;;;;;;;24.80;18.41;100854.04;1768148;80;20889;-76
2022/03/26 10:59:45;;;;;;;61.70;12.53;;;;;;;24.96;18.31;100853.07;1740658;81;21431;-76
2022/03/26 11:02:14;;;;;;;26.00;15.85;;;;;;;24.99;18.11;100851.39;1768402;81;20901;-75
2022/03/26 11:04:42;;;;;;;22.62;9.95;;;;;;;24.87;18.10;100845.28;1768457;80;20924;-75
2022/03/26 11:07:11;;;;;;;32.75;11.80;;;;;;;24.71;18.17;100839.03;1768812;81;21907;-75
2022/03/26 11:09:38;;;;;;;14.95;8.38;;;;;;;24.61;17.80;100825.02;1768197;81;20857;-76
2022/03/26 11:12:07;;;;;;;10.80;8.43;;;;;;;24.36;18.05;100821.13;1768347;81;21407;-73
2022/03/26 11:14:40;;;;;;;15.95;9.00;;;;;;;24.14;18.09;100812.05;1768250;81;20921;-77
2022/03/26 11:17:46;;;;;;;15.88;9.18;;;;;;;24.02;18.02;100803.27;1767344;81;21411;-76
2022/03/26 11:20:50;;;;;;;12.95;7.85;;;;;;;23.92;18.31;100807.48;1768163;80;21225;-77
2022/03/26 11:23:50;;;;;;;32.80;10.05;;;;;;;23.94;18.62;100796.91;1772069;80;20912;-75
2022/03/26 11:26:56;;;;;;;16.80;9.60;;;;;;;23.96;18.03;100802.11;1775422;80;21030;-75